Terminal Aerodrome Forecast
Issued by NWS Central Illinois

Home | Current Version | Previous Version | Text Only | Print | Product List | Glossary On
Versions: 1 2 3 4 5 6 7 8 9 10 11 12 13 14 15 16 17 18 19 20 21 22
000
FTUS43 KILX 260901 AAB
TAFSPI
TAF AMD
KSPI 260901Z 2609/2706 04012KT P6SM SCT015 BKN025
     FM261000 02010KT P6SM SCT025 BKN040
     FM261500 03010G17KT P6SM SKC
     FM270000 03007KT P6SM SKC=

USA.gov is the U.S. government's official web portal to all federal, state and local government web resources and services.